createdAt,value
2023-02-08T00:01:26.925Z,14.87
2023-02-08T00:03:55.444Z,14.30
2023-02-08T00:06:23.850Z,13.90
2023-02-08T00:08:53.497Z,16.20
2023-02-08T00:11:22.003Z,15.70
2023-02-08T00:13:50.390Z,13.13
2023-02-08T00:16:19.338Z,15.30
2023-02-08T00:18:47.699Z,14.47
2023-02-08T00:21:18.420Z,14.83
2023-02-08T00:23:47.480Z,14.97
2023-02-08T00:26:17.449Z,15.03
2023-02-08T00:28:45.792Z,14.27
2023-02-08T00:31:14.175Z,15.07
2023-02-08T00:33:42.553Z,13.63
2023-02-08T00:36:12.957Z,13.30
2023-02-08T00:38:41.243Z,15.83
2023-02-08T00:41:09.697Z,15.47
2023-02-08T00:43:39.363Z,13.80
2023-02-08T00:46:09.565Z,14.53
2023-02-08T00:48:37.903Z,14.43
2023-02-08T00:51:08.861Z,13.67
2023-02-08T00:53:38.474Z,14.60
2023-02-08T00:56:08.203Z,14.43
2023-02-08T00:58:38.067Z,14.17
2023-02-08T01:01:08.124Z,14.43
2023-02-08T01:03:38.711Z,15.97
2023-02-08T01:06:09.345Z,15.27
2023-02-08T01:08:38.267Z,14.27
2023-02-08T01:11:09.961Z,15.07
2023-02-08T01:13:40.221Z,13.33
2023-02-08T01:16:11.606Z,15.13
2023-02-08T01:18:40.745Z,14.60
2023-02-08T01:21:11.877Z,14.10
2023-02-08T01:23:40.951Z,14.60
2023-02-08T01:26:10.686Z,14.67
2023-02-08T01:28:40.726Z,13.97
2023-02-08T01:31:10.881Z,14.90
2023-02-08T01:33:39.647Z,14.37
2023-02-08T01:36:09.161Z,13.27
2023-02-08T01:38:37.824Z,14.43
2023-02-08T01:41:08.658Z,12.93
2023-02-08T01:44:10.151Z,15.07
2023-02-08T01:46:40.690Z,15.53
2023-02-08T01:49:17.458Z,13.63
2023-02-08T01:51:49.768Z,13.53
2023-02-08T01:54:21.041Z,13.23
2023-02-08T01:56:51.032Z,13.63
2023-02-08T01:59:37.580Z,14.53
2023-02-08T02:02:09.364Z,14.50
2023-02-08T02:04:37.718Z,13.10
2023-02-08T02:07:06.885Z,13.13
2023-02-08T02:09:42.598Z,13.40
2023-02-08T02:12:11.848Z,13.37
2023-02-08T02:14:41.701Z,12.77
2023-02-08T02:17:12.488Z,11.83
2023-02-08T02:19:51.448Z,14.63
2023-02-08T02:22:55.989Z,13.07
2023-02-08T02:26:18.636Z,14.37
2023-02-08T02:29:34.997Z,13.90
2023-02-08T02:32:20.416Z,14.27
2023-02-08T02:34:54.022Z,15.53
2023-02-08T02:37:41.353Z,13.93
2023-02-08T02:40:20.163Z,14.47
2023-02-08T02:43:19.580Z,14.67
2023-02-08T02:45:57.707Z,14.10
2023-02-08T02:48:34.821Z,14.00
2023-02-08T02:51:10.771Z,14.03
2023-02-08T02:53:49.519Z,13.80
2023-02-08T02:56:21.320Z,14.33
2023-02-08T02:58:50.868Z,13.87
2023-02-08T03:01:26.139Z,13.83
2023-02-08T03:03:56.045Z,14.63
2023-02-08T03:06:52.646Z,14.77
2023-02-08T03:10:00.983Z,15.10
2023-02-08T03:12:41.852Z,14.40
2023-02-08T03:15:25.095Z,14.63
2023-02-08T03:18:06.571Z,14.83
2023-02-08T03:20:40.476Z,13.23
2023-02-08T03:23:16.634Z,12.27
2023-02-08T03:25:52.488Z,14.30
2023-02-08T03:28:27.534Z,13.73
2023-02-08T03:31:08.662Z,14.33
2023-02-08T03:33:43.660Z,13.57
2023-02-08T03:36:19.340Z,14.93
2023-02-08T03:38:50.157Z,14.57
2023-02-08T03:41:25.046Z,13.77
2023-02-08T03:43:59.387Z,12.87
2023-02-08T03:46:33.338Z,14.50
2023-02-08T03:49:08.149Z,13.43
2023-02-08T03:51:40.660Z,13.67
2023-02-08T03:54:15.288Z,13.20
2023-02-08T03:56:49.764Z,13.70
2023-02-08T03:59:22.968Z,12.07
2023-02-08T04:01:56.864Z,13.80
2023-02-08T04:04:27.763Z,13.20
2023-02-08T04:06:57.498Z,13.87
2023-02-08T04:09:25.870Z,13.17
2023-02-08T04:11:54.148Z,12.87
2023-02-08T04:14:22.401Z,13.67
2023-02-08T04:16:50.687Z,12.87
2023-02-08T04:19:19.019Z,13.87
2023-02-08T04:21:47.329Z,14.27
2023-02-08T04:24:16.979Z,11.83
2023-02-08T04:26:45.272Z,12.57
2023-02-08T04:29:13.831Z,11.73
2023-02-08T04:31:42.189Z,11.47
2023-02-08T04:34:10.529Z,11.57
2023-02-08T04:36:38.778Z,12.07
2023-02-08T04:39:07.191Z,12.20
2023-02-08T04:41:36.836Z,12.20
2023-02-08T04:44:05.146Z,12.57
2023-02-08T04:46:33.456Z,12.37
2023-02-08T04:49:01.717Z,12.33
2023-02-08T04:51:29.956Z,13.73
2023-02-08T04:53:58.212Z,11.90
2023-02-08T04:56:26.468Z,12.67
2023-02-08T04:58:56.179Z,12.67
2023-02-08T05:01:24.534Z,12.43
2023-02-08T05:03:52.768Z,13.23
2023-02-08T05:06:21.055Z,13.37
2023-02-08T05:08:49.293Z,13.20
2023-02-08T05:11:23.075Z,13.53
2023-02-08T05:13:51.735Z,13.80
2023-02-08T05:16:21.550Z,14.07
2023-02-08T05:18:49.914Z,13.93
2023-02-08T05:21:18.202Z,13.07
2023-02-08T05:23:46.887Z,13.80
2023-02-08T05:26:15.229Z,13.53
2023-02-08T05:28:43.497Z,13.77
2023-02-08T05:31:13.907Z,14.60
2023-02-08T05:33:43.623Z,13.17
2023-02-08T05:36:12.108Z,14.03
2023-02-08T05:38:40.359Z,14.30
2023-02-08T05:41:08.679Z,13.90
2023-02-08T05:43:37.199Z,14.40
2023-02-08T05:46:05.824Z,13.73
2023-02-08T05:48:34.487Z,13.97
2023-02-08T05:51:04.242Z,14.27
2023-02-08T05:53:32.712Z,15.33
2023-02-08T05:56:00.970Z,15.93
2023-02-08T05:58:29.416Z,14.70
2023-02-08T06:00:57.990Z,16.60
2023-02-08T06:03:26.551Z,17.10
2023-02-08T06:05:54.815Z,17.13
2023-02-08T06:08:24.479Z,15.53
2023-02-08T06:10:52.716Z,15.87
2023-02-08T06:13:21.003Z,13.93
2023-02-08T06:15:49.235Z,14.83
2023-02-08T06:18:17.850Z,13.80
2023-02-08T06:20:46.148Z,15.20
2023-02-08T06:23:14.412Z,15.00
2023-02-08T06:25:44.032Z,13.60
2023-02-08T06:28:12.330Z,14.67
2023-02-08T06:30:41.018Z,15.17
2023-02-08T06:33:09.495Z,14.23
2023-02-08T06:35:38.067Z,16.70
2023-02-08T06:38:06.311Z,17.97
2023-02-08T06:40:34.606Z,16.87
2023-02-08T06:43:04.292Z,15.40
2023-02-08T06:45:32.598Z,16.13
2023-02-08T06:48:00.936Z,16.83
2023-02-08T06:50:29.224Z,17.93
2023-02-08T06:52:57.484Z,16.10
2023-02-08T06:55:25.748Z,15.40
2023-02-08T06:57:55.080Z,15.50
2023-02-08T07:00:25.293Z,15.40
2023-02-08T07:02:53.597Z,17.20
2023-02-08T07:05:21.866Z,16.03
2023-02-08T07:07:50.281Z,16.03
2023-02-08T07:10:18.809Z,15.80
2023-02-08T07:12:47.073Z,16.80
2023-02-08T07:15:15.349Z,16.77
2023-02-08T07:17:44.948Z,16.60
2023-02-08T07:20:13.834Z,15.60
2023-02-08T07:22:42.862Z,15.47
2023-02-08T07:25:11.568Z,17.03
2023-02-08T07:27:39.837Z,15.60
2023-02-08T07:30:09.704Z,16.63
2023-02-08T07:32:37.926Z,15.30
2023-02-08T07:35:08.718Z,15.83
2023-02-08T07:37:36.935Z,17.20
2023-02-08T07:40:05.560Z,16.10
2023-02-08T07:42:34.703Z,14.97
2023-02-08T07:45:04.330Z,16.07
2023-02-08T07:47:32.658Z,16.43
2023-02-08T07:50:00.942Z,16.50
2023-02-08T07:52:30.621Z,15.87
2023-02-08T07:54:58.856Z,17.47
2023-02-08T07:57:27.117Z,16.63
2023-02-08T07:59:55.375Z,15.53
2023-02-08T08:02:23.881Z,15.47
2023-02-08T08:04:54.103Z,14.40
2023-02-08T08:07:22.389Z,15.17
2023-02-08T08:09:52.049Z,14.57
2023-02-08T08:12:20.944Z,15.13
2023-02-08T08:14:49.232Z,14.20
2023-02-08T08:17:17.792Z,16.20
2023-02-08T08:19:46.161Z,15.83
2023-02-08T08:22:14.411Z,14.37
2023-02-08T08:24:42.652Z,14.63
2023-02-08T08:27:12.358Z,16.33
2023-02-08T08:29:40.668Z,14.40
2023-02-08T08:32:11.747Z,14.77
2023-02-08T08:34:40.275Z,15.40
2023-02-08T08:37:08.628Z,15.07
2023-02-08T08:39:37.257Z,15.43
2023-02-08T08:42:05.869Z,16.63
2023-02-08T08:44:35.637Z,16.53
2023-02-08T08:47:03.922Z,16.13
2023-02-08T08:49:32.404Z,15.67
2023-02-08T08:52:00.671Z,16.77
2023-02-08T08:54:28.932Z,16.87
2023-02-08T08:56:57.123Z,15.60
2023-02-08T08:59:25.508Z,17.13
2023-02-08T09:01:55.456Z,16.77
2023-02-08T09:04:23.931Z,16.23
2023-02-08T09:06:53.854Z,15.50
2023-02-08T09:09:23.305Z,15.17
2023-02-08T09:11:51.916Z,14.67
2023-02-08T09:14:20.251Z,14.77
2023-02-08T09:16:49.249Z,14.93
2023-02-08T09:19:18.910Z,14.10
2023-02-08T09:21:47.462Z,14.73
2023-02-08T09:24:15.748Z,14.67
2023-02-08T09:26:45.837Z,15.03
2023-02-08T09:29:14.144Z,14.33
2023-02-08T09:31:42.852Z,13.60
2023-02-08T09:34:11.824Z,15.00
2023-02-08T09:36:42.624Z,14.43
2023-02-08T09:39:15.241Z,14.23
2023-02-08T09:42:08.818Z,14.20
2023-02-08T09:44:51.356Z,15.43
2023-02-08T09:47:24.641Z,14.97
2023-02-08T09:50:03.199Z,15.53
2023-02-08T09:52:39.576Z,15.37
2023-02-08T09:55:22.906Z,14.90
2023-02-08T09:57:54.895Z,16.87
2023-02-08T10:00:33.203Z,13.97
2023-02-08T10:03:03.322Z,16.00
2023-02-08T10:05:32.807Z,15.40
2023-02-08T10:08:03.467Z,15.27
2023-02-08T10:10:45.160Z,15.43
2023-02-08T10:13:41.073Z,15.50
2023-02-08T10:16:22.740Z,15.47
2023-02-08T10:19:03.810Z,15.63
2023-02-08T10:21:49.790Z,14.43
2023-02-08T10:24:49.598Z,14.97
2023-02-08T10:27:24.845Z,14.40
2023-02-08T10:30:22.302Z,15.23
2023-02-08T10:33:02.565Z,14.63
2023-02-08T10:35:37.304Z,13.50
2023-02-08T10:38:25.488Z,14.00
2023-02-08T10:40:59.805Z,13.37
2023-02-08T10:43:40.310Z,13.30
2023-02-08T10:46:17.976Z,13.93
2023-02-08T10:49:00.047Z,13.73
2023-02-08T10:51:29.870Z,13.10
2023-02-08T10:53:58.845Z,13.57
2023-02-08T10:56:41.050Z,11.83
2023-02-08T10:59:21.356Z,13.30
2023-02-08T11:01:51.144Z,13.20
2023-02-08T11:04:19.743Z,13.20
2023-02-08T11:06:50.422Z,12.70
2023-02-08T11:09:25.217Z,13.37
2023-02-08T11:11:55.782Z,12.37
2023-02-08T11:14:40.908Z,12.70
2023-02-08T11:17:27.643Z,12.33
2023-02-08T11:19:56.690Z,12.57
2023-02-08T11:22:28.293Z,12.70
2023-02-08T11:25:00.439Z,12.93
2023-02-08T11:27:36.676Z,12.23
2023-02-08T11:30:24.765Z,11.80
2023-02-08T11:33:18.500Z,12.03
2023-02-08T11:35:58.464Z,11.77
2023-02-08T11:38:28.573Z,11.87
2023-02-08T11:40:59.892Z,12.60
2023-02-08T11:43:32.489Z,11.93
2023-02-08T11:46:02.516Z,11.97
2023-02-08T11:48:44.566Z,11.57
2023-02-08T11:51:23.760Z,12.17
2023-02-08T11:53:52.364Z,12.03
2023-02-08T11:56:23.266Z,11.90
2023-02-08T11:59:07.660Z,12.10
2023-02-08T12:01:39.289Z,12.53
2023-02-08T12:04:11.614Z,12.40
2023-02-08T12:07:19.745Z,13.13
2023-02-08T12:10:18.100Z,11.50
2023-02-08T12:13:02.413Z,11.70
2023-02-08T12:15:57.419Z,11.63
2023-02-08T12:18:52.358Z,11.10
2023-02-08T12:21:26.747Z,11.03
2023-02-08T12:23:58.649Z,12.17
2023-02-08T12:26:53.962Z,12.83
2023-02-08T12:29:47.375Z,11.13
2023-02-08T12:32:42.465Z,10.50
2023-02-08T12:36:03.190Z,9.93
2023-02-08T12:39:27.417Z,11.93
2023-02-08T12:42:25.891Z,11.60
2023-02-08T12:45:32.903Z,11.03
2023-02-08T12:48:19.166Z,11.50
2023-02-08T12:50:54.712Z,11.20
2023-02-08T12:53:30.972Z,10.90
2023-02-08T12:56:03.526Z,10.30
2023-02-08T12:58:36.737Z,10.43
2023-02-08T13:01:13.192Z,11.00
2023-02-08T13:03:49.452Z,10.40
2023-02-08T13:06:23.355Z,11.13
2023-02-08T13:08:58.856Z,10.73
2023-02-08T13:11:37.138Z,11.47
2023-02-08T13:14:10.959Z,11.20
2023-02-08T13:16:44.868Z,10.67
2023-02-08T13:19:27.735Z,11.70
2023-02-08T13:21:56.540Z,10.77
2023-02-08T13:24:32.987Z,11.10
2023-02-08T13:27:01.289Z,10.73
2023-02-08T13:29:30.961Z,10.77
2023-02-08T13:32:04.775Z,14.00
2023-02-08T13:34:39.583Z,11.17
2023-02-08T13:37:25.174Z,12.63
2023-02-08T13:40:03.179Z,11.37
2023-02-08T13:42:39.684Z,29.97
2023-02-08T13:45:10.846Z,18.33
2023-02-08T13:47:47.542Z,28.07
2023-02-08T13:50:47.733Z,13.70
2023-02-08T13:53:17.532Z,13.13
2023-02-08T13:55:59.373Z,13.00
2023-02-08T13:59:01.382Z,11.20
2023-02-08T14:01:31.771Z,11.07
2023-02-08T14:04:32.867Z,10.33
2023-02-08T14:07:17.589Z,10.03
2023-02-08T14:09:54.996Z,11.03
2023-02-08T14:12:28.980Z,10.10
2023-02-08T14:15:23.571Z,10.17
2023-02-08T14:17:58.225Z,9.50
2023-02-08T14:20:32.129Z,9.50
2023-02-08T14:23:04.815Z,8.67
2023-02-08T14:25:43.583Z,9.20
2023-02-08T14:28:28.890Z,9.50
2023-02-08T14:31:00.349Z,10.33
2023-02-08T14:33:34.300Z,10.53
2023-02-08T14:36:07.279Z,11.63
2023-02-08T14:39:09.830Z,21.20
2023-02-08T14:41:57.238Z,11.97
2023-02-08T14:45:03.762Z,21.57
2023-02-08T14:48:21.344Z,10.83
2023-02-08T14:51:03.984Z,9.67
2023-02-08T14:53:44.271Z,13.00
2023-02-08T14:56:24.589Z,14.70
2023-02-08T14:58:57.339Z,9.73
2023-02-08T15:01:44.581Z,9.53
2023-02-08T15:04:14.279Z,9.37
2023-02-08T15:07:12.205Z,9.40
2023-02-08T15:09:43.282Z,8.50
2023-02-08T15:12:18.796Z,9.37
2023-02-08T15:14:47.395Z,9.70
2023-02-08T15:17:32.455Z,9.70
2023-02-08T15:20:02.354Z,9.43
2023-02-08T15:22:36.948Z,8.97
2023-02-08T15:25:24.056Z,8.93
2023-02-08T15:27:56.803Z,8.87
2023-02-08T15:30:31.644Z,9.47
2023-02-08T15:33:01.067Z,10.17
2023-02-08T15:35:33.367Z,9.00
2023-02-08T15:38:05.127Z,9.90
2023-02-08T15:40:36.115Z,9.73
2023-02-08T15:43:14.507Z,9.80
2023-02-08T15:45:42.832Z,9.07
2023-02-08T15:48:13.939Z,9.20
2023-02-08T15:50:43.048Z,8.77
2023-02-08T15:53:16.666Z,8.10
2023-02-08T15:55:50.456Z,8.97
2023-02-08T15:58:30.105Z,7.33
2023-02-08T16:01:00.953Z,7.33
2023-02-08T16:03:31.029Z,7.37
2023-02-08T16:06:02.163Z,7.50
2023-02-08T16:08:34.148Z,6.67
2023-02-08T16:11:07.116Z,6.43
2023-02-08T16:13:40.244Z,5.70
2023-02-08T16:16:22.685Z,5.50
2023-02-08T16:18:59.438Z,5.63
2023-02-08T16:21:41.523Z,8.37
2023-02-08T16:24:26.302Z,5.33
2023-02-08T16:27:05.989Z,6.47
2023-02-08T16:29:39.124Z,8.20
2023-02-08T16:32:19.112Z,5.20
2023-02-08T16:34:47.890Z,5.37
2023-02-08T16:37:27.420Z,4.70
2023-02-08T16:39:58.225Z,4.70
2023-02-08T16:42:30.724Z,3.97
2023-02-08T16:45:16.059Z,5.03
2023-02-08T16:47:49.274Z,5.23
2023-02-08T16:50:20.141Z,5.00
2023-02-08T16:52:52.664Z,6.00
2023-02-08T16:55:23.561Z,5.23
2023-02-08T16:57:54.212Z,5.23
2023-02-08T17:00:27.265Z,10.73
2023-02-08T17:02:57.200Z,5.67
2023-02-08T17:05:28.782Z,5.87
2023-02-08T17:07:57.560Z,6.50
2023-02-08T17:10:29.187Z,5.57
2023-02-08T17:13:17.058Z,5.63
2023-02-08T17:15:49.687Z,4.97
2023-02-08T17:18:18.096Z,4.03
2023-02-08T17:20:46.902Z,5.40
2023-02-08T17:23:16.326Z,8.47
2023-02-08T17:25:45.203Z,15.00
2023-02-08T17:28:19.381Z,8.73
2023-02-08T17:30:50.370Z,8.83
2023-02-08T17:33:21.639Z,5.50
2023-02-08T17:35:51.941Z,8.37
2023-02-08T17:38:21.444Z,6.60
2023-02-08T17:40:50.155Z,5.37
2023-02-08T17:43:18.965Z,8.83
2023-02-08T17:45:48.547Z,7.27
2023-02-08T17:48:17.375Z,8.20
2023-02-08T17:50:50.841Z,14.70
2023-02-08T17:53:19.700Z,5.03
2023-02-08T17:55:48.292Z,6.37
2023-02-08T17:58:17.616Z,5.30
2023-02-08T18:00:45.907Z,4.93
2023-02-08T18:03:17.238Z,6.07
2023-02-08T18:05:45.580Z,5.77
2023-02-08T18:08:13.833Z,5.97
2023-02-08T18:10:42.664Z,5.90
2023-02-08T18:13:11.125Z,5.90
2023-02-08T18:15:39.465Z,4.97
2023-02-08T18:18:07.792Z,5.03
2023-02-08T18:20:37.449Z,4.70
2023-02-08T18:23:05.699Z,4.47
2023-02-08T18:25:34.037Z,4.63
2023-02-08T18:28:02.304Z,4.63
2023-02-08T18:30:30.784Z,4.10
2023-02-08T18:32:59.108Z,4.70
2023-02-08T18:35:27.383Z,4.03
2023-02-08T18:37:56.976Z,3.87
2023-02-08T18:40:25.251Z,3.87
2023-02-08T18:42:53.489Z,4.23
2023-02-08T18:45:21.921Z,4.63
2023-02-08T18:47:50.165Z,5.43
2023-02-08T18:50:18.588Z,3.93
2023-02-08T18:52:46.842Z,4.53
2023-02-08T18:55:16.673Z,4.37
2023-02-08T18:57:48.161Z,4.13
2023-02-08T19:00:17.641Z,4.10
2023-02-08T19:02:46.489Z,4.50
2023-02-08T19:05:14.763Z,4.20
2023-02-08T19:07:43.018Z,4.30
2023-02-08T19:10:11.581Z,5.60
2023-02-08T19:12:41.691Z,4.63
2023-02-08T19:15:10.822Z,5.40
2023-02-08T19:17:39.221Z,5.70
2023-02-08T19:20:09.227Z,10.87
2023-02-08T19:22:37.461Z,13.33
2023-02-08T19:25:06.429Z,10.17
2023-02-08T19:27:34.684Z,11.90
2023-02-08T19:30:05.802Z,10.20
2023-02-08T19:32:34.071Z,14.80
2023-02-08T19:35:02.359Z,9.37
2023-02-08T19:37:30.634Z,11.13
2023-02-08T19:39:58.936Z,8.47
2023-02-08T19:42:27.227Z,7.43
2023-02-08T19:44:55.536Z,5.43
2023-02-08T19:47:43.420Z,4.73
2023-02-08T19:50:15.507Z,5.30
2023-02-08T19:52:43.770Z,4.93
2023-02-08T19:55:12.236Z,5.50
2023-02-08T19:57:41.121Z,4.67
2023-02-08T20:00:22.415Z,4.87
2023-02-08T20:02:53.162Z,4.23
2023-02-08T20:05:21.493Z,4.20
2023-02-08T20:07:49.718Z,4.87
2023-02-08T20:10:18.088Z,3.83
2023-02-08T20:12:46.366Z,4.83
2023-02-08T20:15:14.578Z,4.83
2023-02-08T20:17:44.097Z,4.80
2023-02-08T20:20:14.029Z,4.20
2023-02-08T20:22:42.342Z,4.83
2023-02-08T20:25:10.587Z,4.17
2023-02-08T20:27:38.868Z,4.67
2023-02-08T20:30:08.748Z,4.33
2023-02-08T20:32:36.985Z,4.90
2023-02-08T20:35:05.533Z,4.67
2023-02-08T20:37:35.330Z,4.90
2023-02-08T20:40:04.040Z,5.57
2023-02-08T20:42:32.493Z,4.70
2023-02-08T20:45:00.740Z,5.07
2023-02-08T20:47:31.865Z,4.97
2023-02-08T20:50:04.992Z,4.67
2023-02-08T20:52:39.971Z,5.70
2023-02-08T20:55:09.665Z,5.87
2023-02-08T20:57:37.975Z,5.00
2023-02-08T21:00:07.686Z,6.43
2023-02-08T21:02:35.996Z,5.63
2023-02-08T21:05:04.286Z,5.40
2023-02-08T21:07:32.515Z,5.20
2023-02-08T21:10:03.942Z,4.60
2023-02-08T21:12:33.456Z,4.43
2023-02-08T21:15:01.898Z,5.03
2023-02-08T21:17:30.597Z,4.83
2023-02-08T21:19:58.882Z,5.33
2023-02-08T21:22:27.477Z,5.63
2023-02-08T21:24:56.121Z,4.77
2023-02-08T21:27:25.780Z,5.10
2023-02-08T21:29:54.049Z,5.77
2023-02-08T21:32:22.344Z,5.57
2023-02-08T21:34:50.960Z,5.43
2023-02-08T21:37:19.279Z,6.10
2023-02-08T21:39:47.542Z,5.57
2023-02-08T21:42:15.894Z,5.13
2023-02-08T21:44:45.523Z,4.77
2023-02-08T21:47:13.892Z,5.13
2023-02-08T21:49:59.697Z,5.53
2023-02-08T21:52:45.558Z,5.17
2023-02-08T21:55:13.941Z,5.67
2023-02-08T21:57:42.221Z,5.87
2023-02-08T22:00:14.200Z,6.43
2023-02-08T22:02:43.473Z,7.80
2023-02-08T22:05:29.160Z,6.20
2023-02-08T22:08:00.386Z,8.30
2023-02-08T22:10:31.454Z,7.43
2023-02-08T22:13:00.228Z,6.47
2023-02-08T22:15:30.869Z,6.30
2023-02-08T22:18:02.487Z,5.20
2023-02-08T22:20:31.593Z,4.90
2023-02-08T22:22:59.875Z,5.63
2023-02-08T22:25:28.196Z,6.27
2023-02-08T22:27:56.575Z,5.70
2023-02-08T22:30:25.744Z,5.47
2023-02-08T22:32:55.524Z,5.90
2023-02-08T22:35:23.789Z,5.50
2023-02-08T22:37:52.077Z,4.87
2023-02-08T22:40:21.083Z,4.93
2023-02-08T22:42:49.346Z,5.07
2023-02-08T22:45:17.661Z,5.70
2023-02-08T22:47:46.273Z,5.03
2023-02-08T22:50:16.439Z,5.10
2023-02-08T22:52:44.710Z,4.63
2023-02-08T22:55:12.988Z,4.33
2023-02-08T22:57:43.434Z,4.83
2023-02-08T23:00:15.204Z,5.60
2023-02-08T23:02:43.532Z,5.10
2023-02-08T23:05:11.859Z,5.77
2023-02-08T23:07:41.538Z,5.40
2023-02-08T23:10:11.923Z,4.87
2023-02-08T23:12:40.643Z,5.00
2023-02-08T23:15:11.505Z,4.90
2023-02-08T23:17:39.759Z,4.80
2023-02-08T23:20:09.313Z,6.13
2023-02-08T23:22:40.061Z,5.23
2023-02-08T23:25:08.910Z,5.30
2023-02-08T23:27:37.231Z,5.03
2023-02-08T23:30:09.434Z,5.20
2023-02-08T23:32:38.374Z,5.33
2023-02-08T23:35:07.784Z,4.57
2023-02-08T23:37:36.104Z,4.40
2023-02-08T23:40:07.216Z,5.00
2023-02-08T23:42:35.486Z,4.67
2023-02-08T23:45:03.893Z,5.17
2023-02-08T23:47:32.698Z,4.80
2023-02-08T23:50:01.078Z,5.10
2023-02-08T23:52:29.338Z,4.63
2023-02-08T23:54:57.682Z,4.80
2023-02-08T23:57:28.321Z,4.80
2023-02-08T23:59:56.596Z,4.70
